Albin, WY

7:38 PM MDT on September 17, 2014 (GMT -0600)
WY Farm and Ranch, Midway | Change Station
CLOSE
Current Station
Personal Weather Station
Location: Cheyenne, WY
Elevation: 5705 ft
Nearby Weather Stations

Elev 5705 ft 41.43 °N, 104.44 °W | Updated 10 seconds ago

Partly Cloudy
Partly Cloudy
67.0 °F
Feels Like 67.0 °F
N
0.0
Wind Variable Wind from North
Gusts 0.0 mph

Today
High -- | Low -- °F
--% Chance of Precip.
Yesterday
High -- | Low -- °F
Precip. -- in
6:39 AM 7:03 PM
Waning Crescent, 31% visible
Pressure 30.03 in
Visibility 10.0 miles
Clouds Clear
Dew Point 46 °F
Humidity 46%
Rainfall 0.02 in
Snow Depth 0 in , 1 in , 0 in
UV 0 out of 12
Pollen 7.00 out of 12
Air Quality Not available.
Flu Activity Not available.
METAR K82V 180115Z AUTO 27003KT 10SM CLR 21/07 A3003 RMK AO2

More Conditions Fewer Conditions

Pressure 30.03 in
Visibility 10.0 miles
Clouds Clear
Dew Point 46 °F
Humidity 46%
Rainfall 0.02 in
Snow Depth 0 in , 1 in , 0 in
UV 0 out of 12
Pollen 7.00 out of 12
Air Quality Not available.
Flu Activity Not available.
METAR K82V 180115Z AUTO 27003KT 10SM CLR 21/07 A3003 RMK AO2

More Conditions Fewer Conditions

10-Day Weather Forecast

Almanac

Astronomy

Sep. 17, 2014 Rise Set
Actual Time 6:39 AM MDT 7:03 PM MDT
Civil Twilight 6:12 AM MDT 7:30 PM MDT
Nautical Twilight 5:39 AM MDT 8:03 PM MDT
Astronomical Twilight 5:06 AM MDT 8:36 PM MDT
Moon 12:39 AM MDT (9/17) 3:17 PM MDT (9/17)
Length of Visible Light 13h 18m
Length of Day
12h 23m
Tomorrow will be 2m 44s shorter.
Waning Crescent, 31% of the Moon is Illuminated
Today
Waning Crescent
Sep 24
New
Oct 1
First Quarter
Oct 8
Full
Oct 15
Last Quarter

Today's Extremes

State Highs State Lows

Community

WunderPhotos

Upload Photos

1,754,248 photos uploaded!

Nearby

Snow Depth

Station Depth Elevation
Loomis Park 0 in 8240 ft
Blind Bull Summit 1 in 8900 ft
Cinnabar Park 0 in 9690 ft
North French Creek 0 in 10130 ft
Big Sandy Opening 0 in 9080 ft

Earthquake Activity

City Distance Mag. Time & Date
No recent earthquake activity has been reported nearby.
Minimum magnitude displayed is 2.5.

Coastal Water Temperatures

Place Temperature
No Stations Reporting

Nearby Weather Stations